createdAt,value
2018-07-20T00:01:18.671Z,20.62
2018-07-20T00:03:48.534Z,20.59
2018-07-20T00:06:18.425Z,20.66
2018-07-20T00:08:48.644Z,20.76
2018-07-20T00:11:18.550Z,20.94
2018-07-20T00:13:48.586Z,20.98
2018-07-20T00:16:18.461Z,20.04
2018-07-20T00:18:48.366Z,20.36
2018-07-20T00:21:18.378Z,20.53
2018-07-20T00:23:48.258Z,20.74
2018-07-20T00:26:18.159Z,20.90
2018-07-20T00:28:48.035Z,21.02
2018-07-20T00:31:18.013Z,20.90
2018-07-20T00:33:47.803Z,21.02
2018-07-20T00:36:17.766Z,21.18
2018-07-20T00:38:47.675Z,21.28
2018-07-20T00:41:17.651Z,20.94
2018-07-20T00:43:47.467Z,20.46
2018-07-20T00:46:17.752Z,20.63
2018-07-20T00:48:47.682Z,20.93
2018-07-20T00:51:17.531Z,20.56
2018-07-20T00:53:47.441Z,20.88
2018-07-20T00:56:17.344Z,20.89
2018-07-20T00:58:47.363Z,20.85
2018-07-20T01:01:17.296Z,20.71
2018-07-20T01:03:47.192Z,20.32
2018-07-20T01:06:17.029Z,20.38
2018-07-20T01:08:46.907Z,20.62
2018-07-20T01:11:16.710Z,20.32
2018-07-20T01:13:46.636Z,20.43
2018-07-20T01:16:16.536Z,20.71
2018-07-20T01:18:46.533Z,20.93
2018-07-20T01:21:16.520Z,20.79
2018-07-20T01:23:46.397Z,20.98
2018-07-20T01:26:16.312Z,21.05
2018-07-20T01:28:46.252Z,20.51
2018-07-20T01:31:16.171Z,20.47
2018-07-20T01:33:46.151Z,20.50
2018-07-20T01:36:16.103Z,20.27
2018-07-20T01:38:46.084Z,20.65
2018-07-20T01:41:16.017Z,20.47
2018-07-20T01:43:45.815Z,20.74
2018-07-20T01:46:15.744Z,20.86
2018-07-20T01:48:45.643Z,20.89
2018-07-20T01:51:15.603Z,20.92
2018-07-20T01:53:45.475Z,20.69
2018-07-20T01:56:15.476Z,20.91
2018-07-20T01:58:45.371Z,20.72
2018-07-20T02:01:15.364Z,20.99
2018-07-20T02:03:45.210Z,20.85
2018-07-20T02:06:15.260Z,21.08
2018-07-20T02:08:45.234Z,20.95
2018-07-20T02:11:15.108Z,21.15
2018-07-20T02:13:44.983Z,21.26
2018-07-20T02:16:14.847Z,20.78
2018-07-20T02:18:44.753Z,20.68
2018-07-20T02:21:14.664Z,20.39
2018-07-20T02:23:44.647Z,20.32
2018-07-20T02:26:14.528Z,20.12
2018-07-20T02:28:44.424Z,20.20
2018-07-20T02:31:14.428Z,20.35
2018-07-20T02:33:44.264Z,20.07
2018-07-20T02:36:14.136Z,20.24
2018-07-20T02:38:43.988Z,20.24
2018-07-20T02:41:13.927Z,20.22
2018-07-20T02:43:43.872Z,20.58
2018-07-20T02:46:13.882Z,19.97
2018-07-20T02:48:43.767Z,20.21
2018-07-20T02:51:13.662Z,20.19
2018-07-20T02:53:43.539Z,20.02
2018-07-20T02:56:13.331Z,20.02
2018-07-20T02:58:43.235Z,19.89
2018-07-20T03:01:13.144Z,20.00
2018-07-20T03:03:43.022Z,20.33
2018-07-20T03:06:12.895Z,19.98
2018-07-20T03:08:42.892Z,20.09
2018-07-20T03:11:12.784Z,20.32
2018-07-20T03:13:42.779Z,20.42
2018-07-20T03:16:12.716Z,20.55
2018-07-20T03:18:42.583Z,20.73
2018-07-20T03:21:12.489Z,20.36
2018-07-20T03:23:42.315Z,20.23
2018-07-20T03:26:12.223Z,20.19
2018-07-20T03:28:42.104Z,20.12
2018-07-20T03:31:12.007Z,20.13
2018-07-20T03:33:41.897Z,20.10
2018-07-20T03:36:11.803Z,20.10
2018-07-20T03:38:41.680Z,20.42
2018-07-20T03:41:11.479Z,20.62
2018-07-20T03:43:41.343Z,20.28
2018-07-20T03:46:11.198Z,20.33
2018-07-20T03:48:41.124Z,20.51
2018-07-20T03:51:10.959Z,20.36
2018-07-20T03:53:40.957Z,20.65
2018-07-20T03:56:11.606Z,20.88
2018-07-20T03:58:41.573Z,21.09
2018-07-20T04:01:11.457Z,21.05
2018-07-20T04:03:41.397Z,21.28
2018-07-20T04:06:11.199Z,20.72
2018-07-20T04:08:40.990Z,20.75
2018-07-20T04:11:10.824Z,20.85
2018-07-20T04:13:40.663Z,20.96
2018-07-20T04:16:10.639Z,21.01
2018-07-20T04:18:40.572Z,21.37
2018-07-20T04:21:10.628Z,21.49
2018-07-20T04:23:40.515Z,21.11
2018-07-20T04:26:10.403Z,21.43
2018-07-20T04:28:40.260Z,21.22
2018-07-20T04:31:10.167Z,21.37
2018-07-20T04:33:40.025Z,21.41
2018-07-20T04:36:09.865Z,21.52
2018-07-20T04:38:39.832Z,21.37
2018-07-20T04:41:09.745Z,21.26
2018-07-20T04:43:39.796Z,20.87
2018-07-20T04:46:09.628Z,21.04
2018-07-20T04:48:39.499Z,21.05
2018-07-20T04:51:09.367Z,21.17
2018-07-20T04:53:39.373Z,21.03
2018-07-20T04:56:09.292Z,21.18
2018-07-20T04:58:39.138Z,21.26
2018-07-20T05:01:09.013Z,21.24
2018-07-20T05:03:38.889Z,21.15
2018-07-20T05:06:08.814Z,21.40
2018-07-20T05:08:39.040Z,21.41
2018-07-20T05:11:08.909Z,21.74
2018-07-20T05:13:38.887Z,21.55
2018-07-20T05:16:08.832Z,21.53
2018-07-20T05:18:38.717Z,21.33
2018-07-20T05:21:08.644Z,20.90
2018-07-20T05:23:38.941Z,21.22
2018-07-20T05:26:08.857Z,21.36
2018-07-20T05:28:38.655Z,21.43
2018-07-20T05:31:08.596Z,21.54
2018-07-20T05:33:38.505Z,21.04
2018-07-20T05:36:08.407Z,21.51
2018-07-20T05:38:38.360Z,21.42
2018-07-20T05:41:08.333Z,21.10
2018-07-20T05:43:38.134Z,21.34
2018-07-20T05:46:08.069Z,21.18
2018-07-20T05:48:38.008Z,21.39
2018-07-20T05:51:08.075Z,21.62
2018-07-20T05:53:37.956Z,21.62
2018-07-20T05:56:07.855Z,21.86
2018-07-20T05:58:37.754Z,21.87
2018-07-20T06:01:07.693Z,22.06
2018-07-20T06:03:37.749Z,22.27
2018-07-20T06:06:07.649Z,22.37
2018-07-20T06:08:37.697Z,22.03
2018-07-20T06:11:07.801Z,21.75
2018-07-20T06:13:37.667Z,21.99
2018-07-20T06:16:07.479Z,22.07
2018-07-20T06:18:37.573Z,21.91
2018-07-20T06:21:08.055Z,21.97
2018-07-20T06:23:37.940Z,21.83
2018-07-20T06:26:07.817Z,21.90
2018-07-20T06:28:37.710Z,21.79
2018-07-20T06:31:07.656Z,21.98
2018-07-20T06:33:37.525Z,21.77
2018-07-20T06:36:07.399Z,21.81
2018-07-20T06:38:37.334Z,21.72
2018-07-20T06:41:07.316Z,21.93
2018-07-20T06:43:37.147Z,22.05
2018-07-20T06:46:07.046Z,22.19
2018-07-20T06:48:36.981Z,22.42
2018-07-20T06:51:06.943Z,22.51
2018-07-20T06:53:36.919Z,22.24
2018-07-20T06:56:07.008Z,22.45
2018-07-20T06:58:37.044Z,22.60
2018-07-20T07:01:07.240Z,22.59
2018-07-20T07:03:37.400Z,22.91
2018-07-20T07:06:07.196Z,22.59
2018-07-20T07:08:37.105Z,22.76
2018-07-20T07:11:07.267Z,22.32
2018-07-20T07:13:37.070Z,22.53
2018-07-20T07:16:07.370Z,22.59
2018-07-20T07:18:37.351Z,22.87
2018-07-20T07:21:07.497Z,22.86
2018-07-20T07:23:37.388Z,22.73
2018-07-20T07:26:07.450Z,22.64
2018-07-20T07:28:37.302Z,22.54
2018-07-20T07:31:07.762Z,22.28
2018-07-20T07:33:37.622Z,22.34
2018-07-20T07:36:07.467Z,22.32
2018-07-20T07:38:37.396Z,22.42
2018-07-20T07:41:07.294Z,22.68
2018-07-20T07:43:37.357Z,22.64
2018-07-20T07:46:07.247Z,22.87
2018-07-20T07:48:37.299Z,22.49
2018-07-20T07:51:07.264Z,22.60
2018-07-20T07:53:37.163Z,22.81
2018-07-20T07:56:07.008Z,23.22
2018-07-20T07:58:36.923Z,23.28
2018-07-20T08:01:06.791Z,23.45
2018-07-20T08:03:36.760Z,23.62
2018-07-20T08:06:06.780Z,23.21
2018-07-20T08:08:36.668Z,23.34
2018-07-20T08:11:06.805Z,23.74
2018-07-20T08:13:36.744Z,23.73
2018-07-20T08:16:06.643Z,24.00
2018-07-20T08:18:36.544Z,23.90
2018-07-20T08:21:06.360Z,23.95
2018-07-20T08:23:36.222Z,23.87
2018-07-20T08:26:06.293Z,23.61
2018-07-20T08:28:36.184Z,23.77
2018-07-20T08:31:06.160Z,23.90
2018-07-20T08:33:36.027Z,23.97
2018-07-20T08:36:05.968Z,23.93
2018-07-20T08:38:35.880Z,23.85
2018-07-20T08:41:05.940Z,23.90
2018-07-20T08:43:35.831Z,24.13
2018-07-20T08:46:05.623Z,24.09
2018-07-20T08:48:35.475Z,23.80
2018-07-20T08:51:05.416Z,23.91
2018-07-20T08:53:35.232Z,23.45
2018-07-20T08:56:05.262Z,23.78
2018-07-20T08:58:35.132Z,23.73
2018-07-20T09:01:04.938Z,23.47
2018-07-20T09:03:34.864Z,23.72
2018-07-20T09:06:04.755Z,23.84
2018-07-20T09:08:34.665Z,23.87
2018-07-20T09:11:04.638Z,24.20
2018-07-20T09:13:34.691Z,23.83
2018-07-20T09:16:04.507Z,24.12
2018-07-20T09:18:34.385Z,24.28
2018-07-20T09:21:04.364Z,24.16
2018-07-20T09:23:34.213Z,24.43
2018-07-20T09:26:04.200Z,24.59
2018-07-20T09:28:34.086Z,24.68
2018-07-20T09:31:03.981Z,24.44
2018-07-20T09:33:33.827Z,24.22
2018-07-20T09:36:03.686Z,24.19
2018-07-20T09:38:33.551Z,24.34
2018-07-20T09:41:03.459Z,24.53
2018-07-20T09:43:33.440Z,23.99
2018-07-20T09:46:03.294Z,24.19
2018-07-20T09:48:33.129Z,24.24
2018-07-20T09:51:02.964Z,24.24
2018-07-20T09:53:32.863Z,24.33
2018-07-20T09:56:02.777Z,24.42
2018-07-20T09:58:32.653Z,24.41
2018-07-20T10:01:02.451Z,24.71
2018-07-20T10:03:35.191Z,24.51
2018-07-20T10:06:05.532Z,24.48
2018-07-20T10:08:35.407Z,24.32
2018-07-20T10:11:05.369Z,24.27
2018-07-20T10:13:35.331Z,24.59
2018-07-20T10:16:05.246Z,24.81
2018-07-20T10:18:35.224Z,24.81
2018-07-20T10:21:05.336Z,24.90
2018-07-20T10:23:35.239Z,24.83
2018-07-20T10:26:05.220Z,24.36
2018-07-20T10:28:41.201Z,24.44
2018-07-20T10:31:11.122Z,24.45
2018-07-20T10:33:40.989Z,24.32
2018-07-20T10:36:10.895Z,24.42
2018-07-20T10:38:40.807Z,24.58
2018-07-20T10:41:10.659Z,24.75
2018-07-20T10:43:40.494Z,24.94
2018-07-20T10:46:10.428Z,25.10
2018-07-20T10:48:40.431Z,24.73
2018-07-20T10:51:10.255Z,24.47
2018-07-20T10:53:40.103Z,24.61
2018-07-20T10:56:09.935Z,24.73
2018-07-20T10:58:39.840Z,24.71
2018-07-20T11:01:09.655Z,24.47
2018-07-20T11:03:39.408Z,24.77
2018-07-20T11:06:09.307Z,24.92
2018-07-20T11:08:39.152Z,24.82
2018-07-20T11:11:09.603Z,24.95
2018-07-20T11:13:39.564Z,24.68
2018-07-20T11:16:09.490Z,24.97
2018-07-20T11:18:39.323Z,24.79
2018-07-20T11:21:09.157Z,24.87
2018-07-20T11:23:39.009Z,24.92
2018-07-20T11:26:09.325Z,24.95
2018-07-20T11:28:39.211Z,24.82
2018-07-20T11:31:09.096Z,24.50
2018-07-20T11:33:38.922Z,24.56
2018-07-20T11:36:08.892Z,24.68
2018-07-20T11:38:38.826Z,24.90
2018-07-20T11:41:08.719Z,24.78
2018-07-20T11:43:38.683Z,25.08
2018-07-20T11:46:08.613Z,25.32
2018-07-20T11:48:38.487Z,25.42
2018-07-20T11:51:08.383Z,25.48
2018-07-20T11:53:38.359Z,25.54
2018-07-20T11:56:08.227Z,25.70
2018-07-20T11:58:38.289Z,25.70
2018-07-20T12:01:08.243Z,25.73
2018-07-20T12:03:38.046Z,25.71
2018-07-20T12:06:07.879Z,25.55
2018-07-20T12:08:37.732Z,25.40
2018-07-20T12:11:07.882Z,25.50
2018-07-20T12:13:37.755Z,25.28
2018-07-20T12:16:07.693Z,25.33
2018-07-20T12:18:37.562Z,25.23
2018-07-20T12:21:07.651Z,25.45
2018-07-20T12:23:37.567Z,25.67
2018-07-20T12:26:07.350Z,25.79
2018-07-20T12:28:37.231Z,25.77
2018-07-20T12:31:07.088Z,25.90
2018-07-20T12:33:37.008Z,25.65
2018-07-20T12:36:07.419Z,25.55
2018-07-20T12:38:37.301Z,25.47
2018-07-20T12:41:07.220Z,25.48
2018-07-20T12:43:37.090Z,25.50
2018-07-20T12:46:07.043Z,25.55
2018-07-20T12:48:36.940Z,25.77
2018-07-20T12:51:07.304Z,25.91
2018-07-20T12:53:37.237Z,25.97
2018-07-20T12:56:07.098Z,25.49
2018-07-20T12:58:37.088Z,25.71
2018-07-20T13:01:06.972Z,25.87
2018-07-20T13:03:36.831Z,25.95
2018-07-20T13:06:06.742Z,26.01
2018-07-20T13:08:36.602Z,25.95
2018-07-20T13:11:06.513Z,25.99
2018-07-20T13:13:36.384Z,25.74
2018-07-20T13:16:06.329Z,25.77
2018-07-20T13:18:36.237Z,25.95
2018-07-20T13:21:06.026Z,26.05
2018-07-20T13:23:35.923Z,26.00
2018-07-20T13:26:06.109Z,25.79
2018-07-20T13:28:35.863Z,26.04
2018-07-20T13:31:05.690Z,26.19
2018-07-20T13:33:35.580Z,26.13
2018-07-20T13:36:05.547Z,26.05
2018-07-20T13:38:35.338Z,25.95
2018-07-20T13:41:05.277Z,25.91
2018-07-20T13:43:35.146Z,25.94
2018-07-20T13:46:04.935Z,25.79
2018-07-20T13:48:34.843Z,25.95
2018-07-20T13:51:04.743Z,25.60
2018-07-20T13:53:34.563Z,25.72
2018-07-20T13:56:04.583Z,25.84
2018-07-20T13:58:34.451Z,25.77
2018-07-20T14:01:04.336Z,25.67
2018-07-20T14:03:34.255Z,25.79
2018-07-20T14:06:04.153Z,25.73
2018-07-20T14:08:34.013Z,25.49
2018-07-20T14:11:04.163Z,25.68
2018-07-20T14:13:33.944Z,25.44
2018-07-20T14:16:03.812Z,25.68
2018-07-20T14:18:33.634Z,25.46
2018-07-20T14:21:03.474Z,25.62
2018-07-20T14:23:33.390Z,25.57
2018-07-20T14:26:03.309Z,25.55
2018-07-20T14:28:33.176Z,25.51
2018-07-20T14:31:03.072Z,25.67
2018-07-20T14:33:32.870Z,25.16
2018-07-20T14:36:02.780Z,25.08
2018-07-20T14:38:32.660Z,25.23
2018-07-20T14:41:02.551Z,25.33
2018-07-20T14:43:32.388Z,25.38
2018-07-20T14:46:02.241Z,25.44
2018-07-20T14:48:32.164Z,25.64
2018-07-20T14:51:02.006Z,25.65
2018-07-20T14:53:31.831Z,25.68
2018-07-20T14:56:01.666Z,25.43
2018-07-20T14:58:31.479Z,25.48
2018-07-20T15:01:01.434Z,25.42
2018-07-20T15:03:31.264Z,25.69
2018-07-20T15:06:01.116Z,25.43
2018-07-20T15:08:30.962Z,25.53
2018-07-20T15:11:01.671Z,25.58
2018-07-20T15:13:31.533Z,25.25
2018-07-20T15:16:01.325Z,25.30
2018-07-20T15:18:31.079Z,25.54
2018-07-20T15:21:00.827Z,25.57
2018-07-20T15:23:30.671Z,25.38
2018-07-20T15:26:00.433Z,25.56
2018-07-20T15:28:30.295Z,25.34
2018-07-20T15:31:00.112Z,25.59
2018-07-20T15:33:30.009Z,25.77
2018-07-20T15:35:59.833Z,25.69
2018-07-20T15:38:29.648Z,25.66
2018-07-20T15:40:59.439Z,25.52
2018-07-20T15:43:29.409Z,25.59
2018-07-20T15:46:05.967Z,25.50
2018-07-20T15:48:29.064Z,25.55
2018-07-20T15:50:58.940Z,25.43
2018-07-20T15:53:36.284Z,25.50
2018-07-20T15:55:58.707Z,25.47
2018-07-20T15:58:28.815Z,25.52
2018-07-20T16:00:58.616Z,25.35
2018-07-20T16:03:28.448Z,25.57
2018-07-20T16:05:58.332Z,25.31
2018-07-20T16:08:28.187Z,25.47
2018-07-20T16:10:57.988Z,25.47
2018-07-20T16:13:27.858Z,25.41
2018-07-20T16:15:57.672Z,25.35
2018-07-20T16:18:27.575Z,25.32
2018-07-20T16:20:57.447Z,25.17
2018-07-20T16:23:27.343Z,25.42
2018-07-20T16:25:57.249Z,25.32
2018-07-20T16:28:27.012Z,25.44
2018-07-20T16:30:56.842Z,25.68
2018-07-20T16:33:26.833Z,25.44
2018-07-20T16:35:56.678Z,25.54
2018-07-20T16:38:26.510Z,25.65
2018-07-20T16:40:56.660Z,25.66
2018-07-20T16:43:26.468Z,25.09
2018-07-20T16:45:56.318Z,25.12
2018-07-20T16:48:26.096Z,25.18
2018-07-20T16:50:56.017Z,25.30
2018-07-20T16:53:25.809Z,25.49
2018-07-20T16:55:55.579Z,25.24
2018-07-20T16:58:25.433Z,25.20
2018-07-20T17:00:55.479Z,25.31
2018-07-20T17:03:25.271Z,25.34
2018-07-20T17:05:55.047Z,25.10
2018-07-20T17:08:24.848Z,25.29
2018-07-20T17:10:54.723Z,24.90
2018-07-20T17:13:24.496Z,25.03
2018-07-20T17:15:54.555Z,25.20
2018-07-20T17:18:24.395Z,25.35
2018-07-20T17:20:54.291Z,25.41
2018-07-20T17:23:24.182Z,25.07
2018-07-20T17:25:54.112Z,25.23
2018-07-20T17:28:23.943Z,24.77
2018-07-20T17:30:53.776Z,24.73
2018-07-20T17:33:23.649Z,24.63
2018-07-20T17:35:53.528Z,24.62
2018-07-20T17:38:23.543Z,24.83
2018-07-20T17:40:53.356Z,24.84
2018-07-20T17:43:23.514Z,24.92
2018-07-20T17:45:53.411Z,24.82
2018-07-20T17:48:23.326Z,25.04
2018-07-20T17:50:53.164Z,24.96
2018-07-20T17:53:23.136Z,24.92
2018-07-20T17:55:53.033Z,24.94
2018-07-20T17:58:29.255Z,25.07
2018-07-20T18:00:59.061Z,24.66
2018-07-20T18:03:28.816Z,24.82
2018-07-20T18:05:58.684Z,24.57
2018-07-20T18:08:28.476Z,24.50
2018-07-20T18:10:58.463Z,24.65
2018-07-20T18:13:28.312Z,24.41
2018-07-20T18:15:58.225Z,24.21
2018-07-20T18:18:28.028Z,24.27
2018-07-20T18:20:57.836Z,24.42
2018-07-20T18:23:27.700Z,24.53
2018-07-20T18:25:57.561Z,24.66
2018-07-20T18:28:27.464Z,24.73
2018-07-20T18:30:57.299Z,24.76
2018-07-20T18:33:27.247Z,24.79
2018-07-20T18:35:57.156Z,24.66
2018-07-20T18:38:27.047Z,24.50
2018-07-20T18:40:56.900Z,24.66
2018-07-20T18:43:26.662Z,24.75
2018-07-20T18:45:56.548Z,24.69
2018-07-20T18:48:26.413Z,24.73
2018-07-20T18:50:56.259Z,24.47
2018-07-20T18:53:26.083Z,24.59
2018-07-20T18:55:55.995Z,24.68
2018-07-20T18:58:26.042Z,24.70
2018-07-20T19:00:55.889Z,24.60
2018-07-20T19:03:25.860Z,24.67
2018-07-20T19:05:55.732Z,24.74
2018-07-20T19:08:25.707Z,24.70
2018-07-20T19:10:55.548Z,24.77
2018-07-20T19:13:25.445Z,24.80
2018-07-20T19:15:55.241Z,24.81
2018-07-20T19:18:25.051Z,24.81
2018-07-20T19:20:54.903Z,24.59
2018-07-20T19:23:24.679Z,24.70
2018-07-20T19:25:54.435Z,24.73
2018-07-20T19:28:24.176Z,24.74
2018-07-20T19:30:54.060Z,24.58
2018-07-20T19:33:23.883Z,24.47
2018-07-20T19:35:53.802Z,24.54
2018-07-20T19:38:23.643Z,24.57
2018-07-20T19:40:53.676Z,24.50
2018-07-20T19:43:23.466Z,24.57
2018-07-20T19:45:53.319Z,24.62
2018-07-20T19:48:23.135Z,24.65
2018-07-20T19:50:52.961Z,24.66
2018-07-20T19:53:22.852Z,24.68
2018-07-20T19:55:52.684Z,24.48
2018-07-20T19:58:22.483Z,24.52
2018-07-20T20:00:52.295Z,24.59
2018-07-20T20:03:22.216Z,24.58
2018-07-20T20:05:51.995Z,24.63
2018-07-20T20:08:21.843Z,24.65
2018-07-20T20:10:51.764Z,24.66
2018-07-20T20:13:21.542Z,24.65
2018-07-20T20:15:51.489Z,24.59
2018-07-20T20:18:21.292Z,24.49
2018-07-20T20:20:51.125Z,24.57
2018-07-20T20:23:21.039Z,24.61
2018-07-20T20:25:50.920Z,24.63
2018-07-20T20:28:20.725Z,24.59
2018-07-20T20:30:50.505Z,24.66
2018-07-20T20:33:20.405Z,24.40
2018-07-20T20:35:50.335Z,24.52
2018-07-20T20:38:20.292Z,24.56
2018-07-20T20:40:50.084Z,24.58
2018-07-20T20:43:19.964Z,24.62
2018-07-20T20:45:49.842Z,24.41
2018-07-20T20:48:19.670Z,24.37
2018-07-20T20:50:49.450Z,24.33
2018-07-20T20:53:19.337Z,24.46
2018-07-20T20:55:49.256Z,24.53
2018-07-20T20:58:19.209Z,24.55
2018-07-20T21:00:49.154Z,24.56
2018-07-20T21:03:19.009Z,24.53
2018-07-20T21:05:48.899Z,24.47
2018-07-20T21:08:18.712Z,24.50
2018-07-20T21:10:48.680Z,24.50
2018-07-20T21:13:18.535Z,24.07
2018-07-20T21:15:48.369Z,23.84
2018-07-20T21:18:18.203Z,24.08
2018-07-20T21:20:48.105Z,24.07
2018-07-20T21:23:18.006Z,24.12
2018-07-20T21:25:47.900Z,24.11
2018-07-20T21:28:17.749Z,24.02
2018-07-20T21:30:47.603Z,24.10
2018-07-20T21:33:17.606Z,24.14
2018-07-20T21:35:47.364Z,24.15
2018-07-20T21:38:17.187Z,24.15
2018-07-20T21:40:46.983Z,24.17
2018-07-20T21:43:16.819Z,24.10
2018-07-20T21:45:46.682Z,24.15
2018-07-20T21:48:16.569Z,24.15
2018-07-20T21:50:46.347Z,24.14
2018-07-20T21:53:16.243Z,24.09
2018-07-20T21:55:46.167Z,24.10
2018-07-20T21:58:16.093Z,24.06
2018-07-20T22:00:45.964Z,24.08
2018-07-20T22:03:15.728Z,24.11
2018-07-20T22:05:45.611Z,24.09
2018-07-20T22:08:15.479Z,23.94
2018-07-20T22:10:45.293Z,23.90
2018-07-20T22:13:15.232Z,23.98
2018-07-20T22:15:45.024Z,24.00
2018-07-20T22:18:14.884Z,23.99
2018-07-20T22:20:44.715Z,23.96
2018-07-20T22:23:14.533Z,23.94
2018-07-20T22:25:44.425Z,23.99
2018-07-20T22:28:14.271Z,23.94
2018-07-20T22:30:44.080Z,23.95
2018-07-20T22:33:13.871Z,23.97
2018-07-20T22:35:43.677Z,23.96
2018-07-20T22:38:13.496Z,23.95
2018-07-20T22:40:43.464Z,23.91
2018-07-20T22:43:13.245Z,23.89
2018-07-20T22:45:43.075Z,23.85
2018-07-20T22:48:12.940Z,23.83
2018-07-20T22:50:42.814Z,23.81
2018-07-20T22:53:12.603Z,23.79
2018-07-20T22:55:42.600Z,23.78
2018-07-20T22:58:12.415Z,23.77
2018-07-20T23:00:42.232Z,23.72
2018-07-20T23:03:12.059Z,23.66
2018-07-20T23:05:41.952Z,23.56
2018-07-20T23:08:11.836Z,23.51
2018-07-20T23:10:41.708Z,23.44
2018-07-20T23:13:11.495Z,23.40
2018-07-20T23:15:41.400Z,23.38
2018-07-20T23:18:11.361Z,23.33
2018-07-20T23:20:42.293Z,23.31
2018-07-20T23:23:12.088Z,23.33
2018-07-20T23:25:42.110Z,23.32
2018-07-20T23:28:12.063Z,23.30
2018-07-20T23:30:41.876Z,23.24
2018-07-20T23:33:11.708Z,23.20
2018-07-20T23:35:41.623Z,23.16
2018-07-20T23:38:11.475Z,23.07
2018-07-20T23:40:41.492Z,23.08
2018-07-20T23:43:11.306Z,23.03
2018-07-20T23:45:41.176Z,22.91
2018-07-20T23:48:11.061Z,22.93
2018-07-20T23:50:40.866Z,22.94
2018-07-20T23:53:10.734Z,22.94
2018-07-20T23:55:40.696Z,22.94
2018-07-20T23:58:10.562Z,22.93
